Time;durP1;ratioP1;P1;durP2;ratioP2;P2;SDS_P1;SDS_P2;PMS_P1;PMS_P2;Temp;Humidity;BMP_temperature;BMP_pressure;BME280_temperature;BME280_humidity;BME280_pressure;Samples;Min_cycle;Max_cycle;Signal;HPM_P1;HPM_P2
2021/05/23 00:02:19;;;;;;;2.62;1.95;;;;;;;23.71;44.23;99400.08;1779194;80;21058;-70
2021/05/23 00:04:45;;;;;;;2.77;1.80;;;;;;;23.72;44.26;99404.44;1786875;79;21035;-72
2021/05/23 00:07:13;;;;;;;2.95;1.87;;;;;;;23.72;44.29;99403.08;1761523;80;21304;-70
2021/05/23 00:09:41;;;;;;;1.95;1.72;;;;;;;23.72;44.33;99407.15;1769686;80;21078;-70
2021/05/23 00:12:12;;;;;;;2.08;1.87;;;;;;;23.72;44.41;99404.44;1783097;79;21567;-70
2021/05/23 00:14:40;;;;;;;1.82;1.67;;;;;;;23.72;44.45;99417.16;1773504;80;21090;-71
2021/05/23 00:17:07;;;;;;;2.30;1.85;;;;;;;23.73;44.53;99431.01;1785695;79;21625;-70
2021/05/23 00:19:34;;;;;;;1.95;1.77;;;;;;;23.72;44.57;99422.06;1737335;80;21589;-70
2021/05/23 00:22:00;;;;;;;3.50;2.20;;;;;;;23.72;44.66;99423.42;1783892;79;21119;-70
2021/05/23 00:24:26;;;;;;;3.35;2.35;;;;;;;23.72;44.69;99414.45;1786790;79;21563;-70
2021/05/23 00:26:54;;;;;;;2.30;2.08;;;;;;;23.72;44.78;99415.28;1790093;79;21031;-70
2021/05/23 00:29:20;;;;;;;2.37;2.00;;;;;;;23.72;44.82;99412.57;1794756;79;21019;-70
2021/05/23 00:31:47;;;;;;;1.90;1.57;;;;;;;23.72;44.88;99407.15;1797313;79;21590;-67
2021/05/23 00:34:13;;;;;;;2.27;2.02;;;;;;;23.70;44.95;99407.95;1788025;79;21903;-68
2021/05/23 00:36:40;;;;;;;2.50;1.77;;;;;;;23.72;45.03;99408.50;1787357;79;21073;-69
2021/05/23 00:39:07;;;;;;;2.10;1.60;;;;;;;23.70;45.07;99405.24;1794239;79;20996;-69
2021/05/23 00:41:33;;;;;;;2.15;1.95;;;;;;;23.70;45.17;99408.47;1785067;79;21083;-68
2021/05/23 00:44:00;;;;;;;2.37;2.00;;;;;;;23.69;45.24;99410.38;1785824;79;21055;-69
2021/05/23 00:46:28;;;;;;;2.35;2.00;;;;;;;23.68;45.33;99410.62;1788415;79;22170;-69
2021/05/23 00:48:55;;;;;;;2.30;1.67;;;;;;;23.67;45.39;99409.83;1779131;79;21076;-68
2021/05/23 00:51:21;;;;;;;2.33;1.80;;;;;;;23.68;45.45;99414.70;1793515;79;21145;-68
2021/05/23 00:53:47;;;;;;;1.95;1.82;;;;;;;23.66;45.54;99414.98;1802400;79;21071;-69
2021/05/23 00:56:18;;;;;;;2.02;1.60;;;;;;;23.66;45.61;99408.20;1789178;79;21040;-68
2021/05/23 00:58:44;;;;;;;1.82;1.70;;;;;;;23.65;45.68;99417.41;1792564;79;21838;-67
2021/05/23 01:01:37;;;;;;;1.90;1.70;;;;;;;23.64;45.75;99414.95;1781977;79;21060;-70
2021/05/23 01:04:03;;;;;;;3.77;1.60;;;;;;;23.63;45.83;99415.50;1675706;83;21115;-70
2021/05/23 01:06:31;;;;;;;1.67;1.57;;;;;;;23.61;45.92;99416.30;1747525;79;21094;-71
2021/05/23 01:08:57;;;;;;;2.25;1.62;;;;;;;23.60;46.01;99421.43;1784684;79;21551;-69
2021/05/23 01:11:34;;;;;;;2.17;1.70;;;;;;;23.59;46.07;99403.55;1798545;79;21079;-70
2021/05/23 01:14:25;;;;;;;2.10;1.77;;;;;;;23.58;46.12;99399.19;1781041;79;21169;-71
2021/05/23 01:16:54;;;;;;;1.70;1.60;;;;;;;23.57;46.21;99404.34;1793543;79;21075;-71
2021/05/23 01:19:57;;;;;;;1.82;1.70;;;;;;;23.55;46.30;99406.51;1785418;78;21099;-70
2021/05/23 01:22:41;;;;;;;2.10;1.90;;;;;;;23.53;46.43;99408.12;1787610;77;21534;-69
2021/05/23 01:25:18;;;;;;;1.70;1.60;;;;;;;23.50;46.51;99408.63;1782695;77;21083;-71
2021/05/23 01:27:49;;;;;;;2.08;1.75;;;;;;;23.49;46.63;99407.56;1788864;79;21075;-69
2021/05/23 01:30:29;;;;;;;1.75;1.65;;;;;;;23.47;46.70;99416.46;1790866;79;21028;-71
2021/05/23 01:33:00;;;;;;;1.75;1.45;;;;;;;23.47;46.80;99420.53;1789291;77;21586;-71
2021/05/23 01:35:40;;;;;;;1.80;1.70;;;;;;;23.44;46.88;99423.78;1771235;77;21047;-70
2021/05/23 01:38:14;;;;;;;2.95;1.70;;;;;;;23.44;46.97;99427.84;1786839;77;21072;-70
2021/05/23 01:40:41;;;;;;;2.42;1.72;;;;;;;23.43;47.03;99420.78;1783747;79;22060;-69
2021/05/23 01:43:08;;;;;;;1.67;1.55;;;;;;;23.41;47.12;99427.00;1791700;79;21016;-70
2021/05/23 01:45:35;;;;;;;1.72;1.52;;;;;;;23.41;47.16;99427.00;1794211;79;21066;-70
2021/05/23 01:48:03;;;;;;;2.00;1.80;;;;;;;;;;1801474;77;21035;-70
2021/05/23 01:50:29;;;;;;;1.72;1.62;;;;;;;23.41;47.30;99427.00;1805307;79;21083;-71
2021/05/23 01:52:59;;;;;;;2.15;1.60;;;;;;;23.40;47.33;99432.16;1798655;79;21079;-70
2021/05/23 01:55:26;;;;;;;2.27;1.77;;;;;;;23.39;47.38;99429.96;1788933;79;21059;-71
2021/05/23 01:57:52;;;;;;;1.77;1.50;;;;;;;23.38;47.43;99423.47;1787541;79;21598;-69
2021/05/23 02:00:26;;;;;;;2.12;1.42;;;;;;;23.39;47.49;99431.86;1788914;79;21020;-71
2021/05/23 02:02:53;;;;;;;1.60;1.50;;;;;;;23.38;47.53;99437.02;1798421;77;21688;-70
2021/05/23 02:05:19;;;;;;;2.65;1.52;;;;;;;23.36;47.59;99438.63;1792521;79;21075;-69
2021/05/23 02:07:45;;;;;;;2.17;1.80;;;;;;;;;;1812455;79;21032;-68
2021/05/23 02:10:16;;;;;;;1.67;1.57;;;;;;;23.35;47.74;99443.24;1805533;77;21130;-69
2021/05/23 02:12:45;;;;;;;1.50;1.40;;;;;;;23.35;47.76;99445.95;1795100;77;21064;-68
2021/05/23 02:15:14;;;;;;;1.60;1.50;;;;;;;23.35;47.82;99442.41;1793007;79;21087;-68
2021/05/23 02:17:40;;;;;;;1.87;1.65;;;;;;;23.34;47.87;99448.92;1785813;77;21066;-68
2021/05/23 02:20:13;;;;;;;1.45;1.35;;;;;;;23.33;47.90;99448.11;1795432;77;21052;-70
2021/05/23 02:22:42;;;;;;;2.12;1.50;;;;;;;23.32;47.95;99457.30;1796202;79;21052;-69
2021/05/23 02:25:10;;;;;;;1.70;1.60;;;;;;;23.31;48.03;99459.75;1801277;79;21044;-70
2021/05/23 02:27:46;;;;;;;2.00;1.80;;;;;;;23.31;48.08;99465.69;1792830;79;21099;-71
2021/05/23 02:30:23;;;;;;;2.60;1.60;;;;;;;23.31;48.10;99469.23;1795001;77;21674;-70
2021/05/23 02:32:51;;;;;;;1.55;1.45;;;;;;;23.28;48.18;99468.38;1792290;79;21619;-69
2021/05/23 02:35:20;;;;;;;1.92;1.60;;;;;;;23.28;48.26;99469.73;1804370;79;21056;-70
2021/05/23 02:37:47;;;;;;;2.17;1.75;;;;;;;23.29;48.29;99469.19;1795757;79;21647;-70
2021/05/23 02:40:16;;;;;;;1.92;1.57;;;;;;;23.27;48.32;99468.09;1799473;77;21083;-68
2021/05/23 02:42:43;;;;;;;1.75;1.65;;;;;;;23.27;48.38;99472.16;1793121;79;21055;-69
2021/05/23 02:45:12;;;;;;;1.80;1.70;;;;;;;23.26;48.42;99471.08;1797752;77;21067;-69
2021/05/23 02:47:39;;;;;;;1.52;1.42;;;;;;;23.26;48.52;99473.80;1797661;79;21693;-68
2021/05/23 02:50:11;;;;;;;1.52;1.42;;;;;;;23.24;48.56;99475.39;1804063;79;21023;-70
2021/05/23 02:52:37;;;;;;;1.75;1.65;;;;;;;23.24;48.59;99475.95;1785824;79;21134;-71
2021/05/23 02:55:06;;;;;;;1.67;1.52;;;;;;;23.23;48.65;99475.65;1786829;79;21156;-70
2021/05/23 02:57:35;;;;;;;1.82;1.70;;;;;;;23.22;48.71;99478.91;1805503;79;21103;-71
2021/05/23 03:00:04;;;;;;;1.70;1.60;;;;;;;23.22;48.76;99484.33;1788999;79;21550;-71
2021/05/23 03:02:31;;;;;;;1.80;1.60;;;;;;;23.21;48.82;99485.39;1807259;79;21032;-70
2021/05/23 03:04:57;;;;;;;1.67;1.57;;;;;;;23.20;48.85;99475.64;1811062;79;21067;-70
2021/05/23 03:07:24;;;;;;;1.65;1.40;;;;;;;23.19;48.91;99473.98;1796081;79;21606;-71
2021/05/23 03:09:50;;;;;;;1.45;1.35;;;;;;;23.19;48.92;99472.63;1792316;79;21071;-73
2021/05/23 03:12:17;;;;;;;1.60;1.50;;;;;;;23.18;48.98;99471.02;1792086;77;21087;-71
2021/05/23 03:14:43;;;;;;;1.72;1.62;;;;;;;23.20;49.02;99474.80;1803170;79;21027;-70
2021/05/23 03:17:10;;;;;;;1.60;1.50;;;;;;;23.20;49.03;99486.99;1797321;77;21818;-69
2021/05/23 03:19:38;;;;;;;1.70;1.60;;;;;;;23.19;49.11;99478.59;1792168;79;21055;-69
2021/05/23 03:22:06;;;;;;;1.57;1.47;;;;;;;23.18;49.15;99477.79;1787712;78;21614;-68
2021/05/23 03:24:33;;;;;;;1.50;1.40;;;;;;;23.19;49.21;99485.38;1794782;79;21067;-69
2021/05/23 03:27:01;;;;;;;1.98;1.77;;;;;;;23.18;49.24;99483.21;1792568;78;21011;-70
2021/05/23 03:29:28;;;;;;;1.82;1.60;;;;;;;23.16;49.28;99487.52;1795076;79;21058;-69
2021/05/23 03:31:55;;;;;;;1.72;1.62;;;;;;;23.16;49.32;99492.13;1787786;79;22044;-68
2021/05/23 03:34:23;;;;;;;1.67;1.52;;;;;;;23.16;49.36;99497.55;1799690;78;21004;-68
2021/05/23 03:36:49;;;;;;;1.70;1.60;;;;;;;23.17;49.40;99503.23;1789031;78;21076;-69
2021/05/23 03:39:16;;;;;;;2.10;1.47;;;;;;;23.17;49.45;99508.66;1786182;77;21467;-69
2021/05/23 03:41:42;;;;;;;1.40;1.30;;;;;;;23.17;49.50;99500.52;1793009;79;21078;-69
2021/05/23 03:44:09;;;;;;;1.90;1.70;;;;;;;23.17;49.52;99495.11;1782307;79;21099;-69
2021/05/23 03:46:35;;;;;;;1.75;1.50;;;;;;;23.15;49.57;99504.84;1802418;79;21079;-70
2021/05/23 03:49:05;;;;;;;1.37;1.27;;;;;;;23.15;49.61;99502.12;1779193;79;21090;-69
2021/05/23 03:51:32;;;;;;;1.80;1.70;;;;;;;23.16;49.65;99513.81;1778766;79;21090;-70
2021/05/23 03:53:59;;;;;;;1.35;1.25;;;;;;;23.16;49.68;99511.91;1796189;79;21741;-71
2021/05/23 03:56:25;;;;;;;1.62;1.52;;;;;;;23.16;49.72;99517.33;1805646;77;21048;-69
2021/05/23 03:58:53;;;;;;;1.50;1.40;;;;;;;23.17;49.75;99516.78;1789595;79;21080;-70
2021/05/23 04:01:19;;;;;;;1.55;1.45;;;;;;;23.17;49.78;99515.43;1783275;79;21142;-70
2021/05/23 04:03:47;;;;;;;1.55;1.45;;;;;;;23.17;49.80;99519.49;1799173;79;22266;-70
2021/05/23 04:06:14;;;;;;;1.50;1.40;;;;;;;23.20;49.84;99523.57;1790433;79;21071;-70
2021/05/23 04:08:42;;;;;;;2.27;2.08;;;;;;;23.19;49.89;99522.77;1801805;79;21016;-70
2021/05/23 04:11:12;;;;;;;1.65;1.55;;;;;;;23.19;49.90;99529.53;1787182;79;21087;-70
2021/05/23 04:13:39;;;;;;;1.50;1.40;;;;;;;23.19;49.94;99529.53;1790367;79;21055;-70
2021/05/23 04:16:05;;;;;;;2.15;1.45;;;;;;;23.21;49.97;99537.41;1779612;79;21574;-71
2021/05/23 04:18:33;;;;;;;1.55;1.45;;;;;;;23.20;50.00;99534.41;1786771;79;21091;-71
2021/05/23 04:20:59;;;;;;;1.70;1.60;;;;;;;23.20;50.06;99546.09;1791916;79;21095;-70
2021/05/23 04:23:26;;;;;;;1.70;1.60;;;;;;;23.21;50.06;99550.42;1788055;79;21070;-71
2021/05/23 04:25:52;;;;;;;2.20;2.08;;;;;;;23.23;50.11;99558.30;1789954;79;21376;-71
2021/05/23 04:28:19;;;;;;;1.80;1.70;;;;;;;23.23;50.12;99558.30;1805543;77;21079;-71
2021/05/23 04:30:46;;;;;;;1.50;1.40;;;;;;;23.24;50.13;99561.30;1791593;77;21079;-71
2021/05/23 04:33:12;;;;;;;1.85;1.42;;;;;;;23.25;50.17;99568.34;1788131;78;21098;-70
2021/05/23 04:35:39;;;;;;;1.70;1.60;;;;;;;23.25;50.19;99560.21;1799330;77;21050;-71
2021/05/23 04:38:05;;;;;;;2.58;1.80;;;;;;;23.25;50.18;99563.73;1803060;79;21621;-71
2021/05/23 04:40:31;;;;;;;1.67;1.40;;;;;;;23.26;50.18;99562.67;1802603;77;20996;-71
2021/05/23 04:42:58;;;;;;;1.80;1.70;;;;;;;23.28;50.20;99558.36;1808626;79;21080;-72
2021/05/23 04:45:26;;;;;;;1.82;1.70;;;;;;;23.28;50.21;99553.75;1793668;77;21051;-71
2021/05/23 04:47:52;;;;;;;2.30;2.10;;;;;;;23.29;50.20;99560.79;1794792;77;21094;-71
2021/05/23 04:50:19;;;;;;;2.52;1.70;;;;;;;23.31;50.24;99568.16;1800726;77;21114;-70
2021/05/23 04:52:46;;;;;;;2.00;1.80;;;;;;;23.32;50.21;99573.84;1786574;77;21075;-70
2021/05/23 04:55:13;;;;;;;1.60;1.50;;;;;;;23.35;50.23;99575.21;1789480;77;21078;-71
2021/05/23 04:57:40;;;;;;;2.00;1.80;;;;;;;23.37;50.21;99574.41;1799937;79;21028;-71
2021/05/23 05:00:10;;;;;;;1.70;1.60;;;;;;;23.40;50.19;99575.81;1807014;77;21059;-71
2021/05/23 05:02:37;;;;;;;1.60;1.50;;;;;;;23.41;50.20;99579.63;1795180;77;21036;-69
2021/05/23 05:05:07;;;;;;;2.05;1.80;;;;;;;23.44;50.17;99576.93;1784333;77;21606;-70
2021/05/23 05:07:34;;;;;;;2.02;1.90;;;;;;;23.45;50.17;99572.61;1796472;79;21048;-70
2021/05/23 05:10:01;;;;;;;1.67;1.57;;;;;;;23.47;50.16;99569.11;1797515;77;21591;-70
2021/05/23 05:12:27;;;;;;;1.90;1.80;;;;;;;23.49;50.16;99571.57;1791552;79;21028;-71
2021/05/23 05:14:54;;;;;;;2.00;1.65;;;;;;;23.51;50.15;99574.29;1785034;79;21095;-70
2021/05/23 05:17:20;;;;;;;1.82;1.70;;;;;;;23.52;50.14;99573.75;1791951;77;21121;-68
2021/05/23 05:19:47;;;;;;;2.22;1.70;;;;;;;23.55;50.14;99578.66;1798135;77;21638;-69
2021/05/23 05:22:14;;;;;;;1.87;1.77;;;;;;;23.57;50.13;99580.58;1791640;78;21083;-69
2021/05/23 05:24:41;;;;;;;2.05;1.70;;;;;;;23.59;50.12;99583.84;1802410;77;21047;-70
2021/05/23 05:27:07;;;;;;;2.27;1.90;;;;;;;23.62;50.15;99579.80;1792947;78;21059;-71
2021/05/23 05:29:33;;;;;;;1.75;1.65;;;;;;;23.63;50.13;99590.94;1790174;77;21645;-71
2021/05/23 05:32:02;;;;;;;1.50;1.40;;;;;;;23.67;50.12;99594.77;1789751;77;22512;-71
2021/05/23 05:34:28;;;;;;;1.90;1.70;;;;;;;23.69;50.15;99599.39;1786596;77;21134;-70
2021/05/23 05:36:55;;;;;;;1.85;1.70;;;;;;;23.72;50.11;99602.92;1788140;78;21024;-70
2021/05/23 05:39:22;;;;;;;1.80;1.70;;;;;;;23.75;50.11;99605.13;1792421;78;21031;-70
2021/05/23 05:41:48;;;;;;;1.85;1.60;;;;;;;23.78;50.11;99599.23;1807181;78;21234;-70
2021/05/23 05:44:15;;;;;;;2.10;1.90;;;;;;;23.80;50.09;99596.23;1788965;77;21635;-71
2021/05/23 05:46:42;;;;;;;2.20;1.90;;;;;;;23.84;50.13;99604.16;1804509;77;21019;-70
2021/05/23 05:49:08;;;;;;;1.60;1.50;;;;;;;23.86;50.13;99610.14;1787057;77;21664;-70
2021/05/23 05:51:35;;;;;;;1.80;1.70;;;;;;;23.88;50.18;99606.63;1788830;77;21055;-69
2021/05/23 05:54:03;;;;;;;1.62;1.52;;;;;;;23.90;50.23;99609.36;1789076;77;21342;-70
2021/05/23 05:56:29;;;;;;;1.62;1.52;;;;;;;23.93;50.23;99613.44;1812754;77;21071;-69
2021/05/23 05:58:56;;;;;;;1.70;1.60;;;;;;;23.95;50.22;99612.64;1809929;77;21071;-71
2021/05/23 06:01:22;;;;;;;1.65;1.55;;;;;;;23.98;50.21;99611.31;1795895;77;21159;-70
2021/05/23 06:03:49;;;;;;;2.20;2.00;;;;;;;24.01;50.21;99611.63;1797469;78;21063;-70
2021/05/23 06:06:15;;;;;;;1.60;1.50;;;;;;;24.04;50.19;99623.30;1810114;77;21598;-71
2021/05/23 06:08:42;;;;;;;1.50;1.40;;;;;;;24.06;50.16;99627.11;1802836;78;21044;-70
2021/05/23 06:11:09;;;;;;;1.80;1.70;;;;;;;24.10;50.14;99622.80;1795891;77;21626;-72
2021/05/23 06:13:36;;;;;;;2.25;1.80;;;;;;;24.11;50.17;99629.33;1804064;78;21028;-71
2021/05/23 06:16:04;;;;;;;1.90;1.80;;;;;;;24.17;50.16;99640.23;1797158;77;21098;-72
2021/05/23 06:18:32;;;;;;;1.70;1.60;;;;;;;24.20;50.16;99629.64;1792368;78;21339;-70
2021/05/23 06:20:59;;;;;;;1.65;1.55;;;;;;;24.23;50.16;99629.68;1808531;78;21114;-70
2021/05/23 06:23:26;;;;;;;1.98;1.70;;;;;;;24.27;50.16;99628.89;1797964;78;21036;-71
2021/05/23 06:25:53;;;;;;;1.90;1.80;;;;;;;24.30;50.11;99631.64;1793263;77;21605;-67
2021/05/23 06:28:20;;;;;;;1.85;1.70;;;;;;;24.32;50.07;99618.62;1798000;77;21535;-77
2021/05/23 06:30:46;;;;;;;2.10;1.90;;;;;;;24.34;50.64;99619.98;1792833;77;21062;-77
2021/05/23 06:33:13;;;;;;;1.75;1.65;;;;;;;24.39;50.96;99621.09;1790596;77;21550;-74
2021/05/23 06:38:24;;;;;;;1.92;1.72;;;;;;;24.47;50.99;99610.56;1823363;75;22637;-74
2021/05/23 06:40:51;;;;;;;6.42;4.05;;;;;;;24.41;51.02;99621.09;1799395;77;21042;-74
2021/05/23 06:43:17;;;;;;;12.90;8.28;;;;;;;24.46;51.00;99612.98;1797053;78;21162;-74
2021/05/23 06:45:44;;;;;;;14.93;8.03;;;;;;;24.50;50.93;99616.81;1795209;77;21022;-73
2021/05/23 06:48:11;;;;;;;12.45;7.37;;;;;;;24.53;50.85;99613.61;1799354;79;21533;-74
2021/05/23 06:50:38;;;;;;;10.45;6.80;;;;;;;24.57;50.72;99611.19;1782612;79;21114;-72
2021/05/23 06:53:05;;;;;;;10.45;6.03;;;;;;;24.60;50.69;99606.57;1804372;77;21046;-73
2021/05/23 06:55:32;;;;;;;14.95;6.17;;;;;;;24.66;50.83;99616.92;1794836;78;21279;-72
2021/05/23 06:57:59;;;;;;;10.78;5.22;;;;;;;24.68;50.87;99616.11;1790712;77;20943;-73
2021/05/23 07:00:26;;;;;;;8.40;5.83;;;;;;;24.73;50.85;99623.75;1792570;78;21531;-71
2021/05/23 07:02:52;;;;;;;9.48;5.40;;;;;;;24.78;50.79;99618.06;1795625;78;21153;-69
2021/05/23 07:05:19;;;;;;;5.25;4.47;;;;;;;24.81;50.77;99615.63;1797515;77;21038;-70
2021/05/23 07:07:47;;;;;;;8.05;4.80;;;;;;;24.85;50.75;99617.28;1798164;78;21118;-73
2021/05/23 07:10:15;;;;;;;5.20;4.30;;;;;;;24.88;50.69;99614.86;1793225;78;21058;-72
2021/05/23 07:12:42;;;;;;;5.55;4.10;;;;;;;24.93;50.60;99621.65;1797435;77;21078;-73
2021/05/23 07:15:11;;;;;;;6.33;4.33;;;;;;;24.97;50.52;99621.13;1796221;79;21578;-73
2021/05/23 07:17:38;;;;;;;5.53;3.50;;;;;;;25.00;50.39;99622.78;1797308;78;21577;-73
2021/05/23 07:20:07;;;;;;;4.92;3.83;;;;;;;25.04;50.26;99625.78;1796524;78;21687;-73
2021/05/23 07:22:33;;;;;;;5.47;3.50;;;;;;;25.07;50.14;99615.72;1739924;80;21668;-72
2021/05/23 07:25:00;;;;;;;4.67;3.30;;;;;;;25.11;50.05;99619.02;1752528;80;21043;-71
2021/05/23 07:27:26;;;;;;;5.50;3.30;;;;;;;25.15;49.96;99609.79;1753810;80;21561;-73
2021/05/23 07:29:53;;;;;;;5.90;3.60;;;;;;;25.18;49.82;99614.67;1752722;81;21343;-72
2021/05/23 07:32:19;;;;;;;6.05;3.30;;;;;;;25.21;49.73;99612.79;1755914;79;21738;-75
2021/05/23 07:34:46;;;;;;;3.87;3.00;;;;;;;25.25;49.64;99615.83;1753748;79;21023;-72
2021/05/23 07:37:13;;;;;;;5.33;2.80;;;;;;;25.27;49.55;99617.18;1754114;79;21569;-73
2021/05/23 07:39:39;;;;;;;3.87;2.72;;;;;;;25.31;49.43;99617.46;1755957;79;21118;-73
2021/05/23 07:42:06;;;;;;;4.22;3.08;;;;;;;25.34;49.34;99616.09;1760097;79;21538;-72
2021/05/23 07:44:33;;;;;;;4.78;3.45;;;;;;;25.38;49.18;99619.91;1755550;80;21130;-73
2021/05/23 07:46:59;;;;;;;5.22;3.40;;;;;;;25.41;49.06;99612.59;1755237;80;21078;-72
2021/05/23 07:49:26;;;;;;;3.65;2.85;;;;;;;25.42;48.99;99610.96;1758668;79;21082;-73
2021/05/23 07:51:52;;;;;;;5.03;3.30;;;;;;;25.46;48.89;99622.13;1752313;79;21641;-74
2021/05/23 07:54:19;;;;;;;5.83;3.20;;;;;;;25.49;48.84;99616.12;1756808;80;21105;-74
2021/05/23 07:56:45;;;;;;;3.95;3.10;;;;;;;25.51;48.78;99618.03;1754481;79;21110;-71
2021/05/23 07:59:12;;;;;;;3.98;3.42;;;;;;;25.54;48.71;99620.22;1755956;80;21154;-71
2021/05/23 08:01:39;;;;;;;5.22;3.25;;;;;;;25.58;48.63;99623.22;1754998;80;21079;-70
2021/05/23 08:04:05;;;;;;;4.28;2.95;;;;;;;25.60;48.55;99606.89;1754443;80;21052;-72
2021/05/23 08:06:33;;;;;;;5.42;2.95;;;;;;;25.63;48.50;99613.69;1757760;80;21502;-72
2021/05/23 08:09:00;;;;;;;3.83;2.95;;;;;;;25.64;48.46;99610.70;1757799;80;21142;-72
2021/05/23 08:11:26;;;;;;;3.90;3.20;;;;;;;25.67;48.43;99619.70;1759597;80;21095;-71
2021/05/23 08:13:54;;;;;;;6.17;2.80;;;;;;;25.70;48.36;99621.86;1747383;80;21071;-71
2021/05/23 08:16:20;;;;;;;3.98;2.90;;;;;;;25.72;48.29;99619.42;1755730;80;21579;-72
2021/05/23 08:18:47;;;;;;;3.10;2.80;;;;;;;25.75;48.25;99625.14;1747598;79;21090;-72
2021/05/23 08:21:14;;;;;;;4.03;3.02;;;;;;;25.78;48.21;99630.02;1754178;80;23192;-71
2021/05/23 08:23:42;;;;;;;4.70;3.30;;;;;;;25.80;48.14;99630.56;1753647;79;21652;-72
2021/05/23 08:26:09;;;;;;;4.08;3.08;;;;;;;25.83;48.07;99633.30;1758628;80;21042;-75
2021/05/23 08:28:36;;;;;;;4.03;2.70;;;;;;;25.85;48.03;99636.57;1752988;80;21113;-74
2021/05/23 08:31:02;;;;;;;4.62;3.00;;;;;;;25.88;47.99;99645.53;1757356;80;21075;-71
2021/05/23 08:33:30;;;;;;;5.92;3.05;;;;;;;25.90;47.89;99636.03;1756055;80;21079;-72
2021/05/23 08:35:58;;;;;;;2.80;2.50;;;;;;;25.94;47.84;99645.02;1755944;79;21165;-73
2021/05/23 08:38:24;;;;;;;4.67;2.62;;;;;;;25.96;47.79;99646.41;1752818;80;21799;-71
2021/05/23 08:40:52;;;;;;;2.98;2.65;;;;;;;25.98;47.68;99642.86;1749799;79;21034;-73
2021/05/23 08:43:21;;;;;;;3.05;2.60;;;;;;;26.03;47.61;99654.28;1754372;79;21070;-73
2021/05/23 08:45:49;;;;;;;4.05;3.10;;;;;;;26.04;47.53;99654.56;1756644;79;21264;-72
2021/05/23 08:48:17;;;;;;;3.47;2.70;;;;;;;26.06;47.42;99651.03;1750792;81;21539;-70
2021/05/23 08:50:49;;;;;;;4.67;2.80;;;;;;;26.07;47.39;99644.48;1753514;81;21006;-72
2021/05/23 08:53:16;;;;;;;4.78;3.02;;;;;;;26.09;47.34;99644.47;1749036;79;21119;-73
2021/05/23 08:55:45;;;;;;;3.52;2.50;;;;;;;26.12;47.36;99642.31;1752858;79;21082;-74
2021/05/23 08:58:12;;;;;;;4.70;2.40;;;;;;;26.14;47.36;99638.77;1753462;81;21242;-73
2021/05/23 09:00:39;;;;;;;3.45;2.45;;;;;;;26.15;47.24;99639.84;1752912;79;21103;-73
2021/05/23 09:03:13;;;;;;;2.80;2.50;;;;;;;26.17;47.12;99639.02;1726559;81;21047;-75
2021/05/23 09:05:48;;;;;;;4.15;2.98;;;;;;;26.19;47.14;99631.94;1756072;81;21046;-71
2021/05/23 09:08:21;;;;;;;5.90;2.58;;;;;;;26.22;47.19;99643.66;1749930;79;21574;-71
2021/05/23 09:10:52;;;;;;;5.80;2.67;;;;;;;26.24;46.54;99655.90;1756476;81;21684;-68
2021/05/23 09:13:33;;;;;;;3.65;2.12;;;;;;;26.20;43.12;99648.01;1749497;81;21055;-68
2021/05/23 09:16:05;;;;;;;4.87;3.90;;;;;;;26.19;42.70;99660.53;1752014;79;21652;-76
2021/05/23 09:18:55;;;;;;;5.83;2.90;;;;;;;26.12;39.59;99666.27;1751922;79;21087;-77
2021/05/23 09:21:31;;;;;;;4.30;2.30;;;;;;;26.01;37.79;99652.38;1755674;81;21601;-73
2021/05/23 09:24:01;;;;;;;2.35;2.02;;;;;;;25.89;37.17;99645.82;1750572;81;23107;-77
2021/05/23 09:26:33;;;;;;;3.02;1.90;;;;;;;25.81;36.54;99647.17;1755383;81;21118;-71
2021/05/23 09:29:08;;;;;;;1.98;1.82;;;;;;;25.74;36.13;99648.53;1754349;79;21019;-72
2021/05/23 09:31:35;;;;;;;2.55;2.25;;;;;;;25.65;35.80;99639.55;1751664;79;22069;-80
2021/05/23 09:34:01;;;;;;;2.52;1.80;;;;;;;25.58;36.04;99645.79;1754197;80;21923;-79
2021/05/23 09:36:28;;;;;;;2.42;1.70;;;;;;;25.57;36.48;99639.25;1747683;79;21805;-73
2021/05/23 09:39:01;;;;;;;4.45;1.90;;;;;;;25.58;36.21;99640.35;1770569;79;21516;-76
2021/05/23 09:41:32;;;;;;;2.05;1.37;;;;;;;25.58;36.22;99639.55;1769857;80;21111;-74
2021/05/23 09:44:21;;;;;;;1.87;1.55;;;;;;;25.58;35.35;99644.44;1758436;80;21111;-74
2021/05/23 09:47:08;;;;;;;4.28;1.55;;;;;;;25.57;35.44;99644.70;1765442;78;21065;-74
2021/05/23 09:49:41;;;;;;;2.58;1.35;;;;;;;25.57;35.30;99642.78;1792037;79;21148;-73
2021/05/23 09:52:35;;;;;;;1.57;1.45;;;;;;;25.58;34.70;99636.83;1774340;78;21050;-74
2021/05/23 09:55:04;;;;;;;16.37;12.20;;;;;;;25.57;34.62;99634.63;1789832;79;21115;-75
2021/05/23 09:57:30;;;;;;;5.22;4.20;;;;;;;25.59;33.89;99639.80;1769023;79;21129;-75
2021/05/23 10:00:05;;;;;;;3.00;2.40;;;;;;;25.57;33.61;99642.78;1782817;79;21166;-74
2021/05/23 10:02:32;;;;;;;2.85;2.30;;;;;;;25.56;33.44;99630.84;1795242;79;21615;-74
2021/05/23 10:05:04;;;;;;;2.33;1.90;;;;;;;25.57;33.97;99627.82;1790471;78;21667;-75
2021/05/23 10:07:34;;;;;;;2.80;2.00;;;;;;;25.59;33.82;99632.45;1777413;79;21090;-75
2021/05/23 10:10:02;;;;;;;3.15;1.80;;;;;;;25.62;33.97;99637.36;1772605;79;21055;-75
2021/05/23 10:12:29;;;;;;;3.75;1.77;;;;;;;25.63;33.28;99637.65;1789908;78;21058;-70
2021/05/23 10:14:57;;;;;;;2.55;1.52;;;;;;;25.63;33.36;99643.61;1792244;79;21531;-74
2021/05/23 10:17:25;;;;;;;2.87;1.80;;;;;;;25.63;33.40;99651.25;1788886;78;21115;-78
2021/05/23 10:19:52;;;;;;;1.70;1.47;;;;;;;25.65;33.37;99644.99;1782123;79;21023;-78
2021/05/23 10:22:19;;;;;;;1.87;1.40;;;;;;;25.68;33.38;99652.59;1772076;79;21103;-79
2021/05/23 10:24:57;;;;;;;2.92;1.70;;;;;;;25.72;33.19;99647.98;1778652;79;21035;-80
2021/05/23 10:27:24;;;;;;;1.92;1.77;;;;;;;25.76;33.36;99640.91;1781140;79;21701;-75
2021/05/23 10:29:53;;;;;;;2.55;1.30;;;;;;;25.84;33.15;99642.53;1770796;79;21191;-75
2021/05/23 10:32:24;;;;;;;1.95;1.65;;;;;;;25.92;32.76;99649.38;1779413;79;21820;-78
2021/05/23 10:34:51;;;;;;;2.17;1.37;;;;;;;25.96;32.48;99639.60;1796177;79;21083;-78
2021/05/23 10:37:29;;;;;;;2.15;1.45;;;;;;;25.95;32.31;99646.67;1779790;79;21083;-76
2021/05/23 10:39:57;;;;;;;2.83;1.45;;;;;;;25.93;32.98;99645.58;1771917;79;21690;-75
2021/05/23 10:42:31;;;;;;;11.63;6.70;;;;;;;25.94;33.80;99652.66;1780824;79;21735;-77
2021/05/23 10:44:57;;;;;;;14.65;8.43;;;;;;;25.99;34.35;99649.92;1781025;79;21059;-77
2021/05/23 10:47:34;;;;;;;12.40;8.28;;;;;;;26.08;34.90;99642.05;1768458;79;20990;-78
2021/05/23 10:50:07;;;;;;;8.95;5.10;;;;;;;26.18;35.91;99644.75;1791206;78;21105;-77
2021/05/23 10:52:35;;;;;;;8.13;4.12;;;;;;;26.28;36.05;99652.08;1783641;79;21090;-77
2021/05/23 10:55:14;;;;;;;6.80;3.75;;;;;;;26.35;34.85;99655.88;1786947;79;21154;-77
2021/05/23 10:57:51;;;;;;;5.87;3.45;;;;;;;26.38;35.01;99658.87;1786263;78;21068;-77
2021/05/23 11:00:27;;;;;;;6.10;4.55;;;;;;;26.42;35.51;99656.41;1778335;79;21036;-77
2021/05/23 11:02:55;;;;;;;9.18;6.70;;;;;;;26.46;35.20;99651.52;1786549;78;21134;-68
2021/05/23 11:05:30;;;;;;;10.35;5.55;;;;;;;26.48;34.44;99639.80;1780673;79;21073;-68
2021/05/23 11:08:00;;;;;;;6.90;5.28;;;;;;;26.51;35.59;99633.53;1789409;79;21071;-66
2021/05/23 11:10:42;;;;;;;5.97;5.20;;;;;;;26.57;36.12;99631.87;1784496;79;21110;-66
2021/05/23 11:13:14;;;;;;;6.72;4.95;;;;;;;26.66;36.20;99622.07;1788658;78;21125;-68
2021/05/23 11:15:47;;;;;;;6.30;4.92;;;;;;;26.81;36.57;99634.83;1779002;79;21091;-69
2021/05/23 11:18:25;;;;;;;7.75;4.85;;;;;;;26.91;37.00;99635.34;1772843;79;21122;-67
2021/05/23 11:21:06;;;;;;;6.42;4.75;;;;;;;27.02;37.39;99634.73;1771159;81;21027;-68
2021/05/23 11:23:47;;;;;;;5.55;4.58;;;;;;;27.12;38.09;99631.14;1772406;79;21123;-67
2021/05/23 11:26:15;;;;;;;5.95;4.42;;;;;;;27.23;38.25;99630.80;1771072;80;21058;-69
2021/05/23 11:28:54;;;;;;;6.67;4.50;;;;;;;27.34;38.25;99626.70;1778996;79;21028;-67
2021/05/23 11:31:34;;;;;;;6.28;4.47;;;;;;;27.43;38.83;99638.09;1773754;79;21114;-67
2021/05/23 11:34:02;;;;;;;4.58;3.72;;;;;;;27.52;39.43;99636.93;1771415;81;21046;-68
2021/05/23 11:36:33;;;;;;;5.47;4.55;;;;;;;27.60;39.87;99634.15;1773727;79;21011;-69
2021/05/23 11:39:09;;;;;;;4.80;4.20;;;;;;;27.67;40.05;99635.20;1783722;79;21059;-68
2021/05/23 11:41:45;;;;;;;5.05;4.03;;;;;;;27.72;40.36;99635.98;1787570;79;21055;-68
2021/05/23 11:44:13;;;;;;;5.75;4.60;;;;;;;27.78;40.45;99628.58;1778305;80;21077;-67
2021/05/23 11:46:50;;;;;;;6.37;4.65;;;;;;;27.82;40.72;99640.55;1786849;77;21074;-67